sensor_id;sensor_type;location;lat;lon;timestamp;P1;durP1;ratioP1;P2;durP2;ratioP2
66886;SDS011;53798;51.680;5.976;2022-07-21T00:00:22;20.58;;;15.50;;
66886;SDS011;53798;51.680;5.976;2022-07-21T00:02:52;18.17;;;15.80;;
66886;SDS011;53798;51.680;5.976;2022-07-21T00:05:22;18.80;;;15.73;;
66886;SDS011;53798;51.680;5.976;2022-07-21T00:07:51;19.85;;;16.17;;
66886;SDS011;53798;51.680;5.976;2022-07-21T00:10:21;19.92;;;17.50;;
66886;SDS011;53798;51.680;5.976;2022-07-21T00:12:51;19.70;;;17.02;;
66886;SDS011;53798;51.680;5.976;2022-07-21T00:15:21;22.17;;;18.83;;
66886;SDS011;53798;51.680;5.976;2022-07-21T00:17:51;21.15;;;18.05;;
66886;SDS011;53798;51.680;5.976;2022-07-21T00:20:20;21.10;;;18.05;;
66886;SDS011;53798;51.680;5.976;2022-07-21T00:22:48;20.88;;;17.08;;
66886;SDS011;53798;51.680;5.976;2022-07-21T00:25:15;16.70;;;14.98;;
66886;SDS011;53798;51.680;5.976;2022-07-21T00:27:43;17.90;;;14.00;;
66886;SDS011;53798;51.680;5.976;2022-07-21T00:30:11;17.50;;;13.88;;
66886;SDS011;53798;51.680;5.976;2022-07-21T00:32:39;15.27;;;13.35;;
66886;SDS011;53798;51.680;5.976;2022-07-21T00:35:08;16.40;;;14.50;;
66886;SDS011;53798;51.680;5.976;2022-07-21T00:37:37;16.10;;;13.70;;
66886;SDS011;53798;51.680;5.976;2022-07-21T00:40:06;14.77;;;12.95;;
66886;SDS011;53798;51.680;5.976;2022-07-21T00:42:36;16.10;;;13.07;;
66886;SDS011;53798;51.680;5.976;2022-07-21T00:45:05;15.63;;;12.85;;
66886;SDS011;53798;51.680;5.976;2022-07-21T00:47:34;14.48;;;12.43;;
66886;SDS011;53798;51.680;5.976;2022-07-21T00:50:10;14.93;;;13.32;;
66886;SDS011;53798;51.680;5.976;2022-07-21T00:52:41;14.65;;;12.25;;
66886;SDS011;53798;51.680;5.976;2022-07-21T00:55:13;15.57;;;12.52;;
66886;SDS011;53798;51.680;5.976;2022-07-21T00:57:45;15.43;;;12.68;;
66886;SDS011;53798;51.680;5.976;2022-07-21T01:00:15;14.90;;;12.05;;
66886;SDS011;53798;51.680;5.976;2022-07-21T01:02:54;14.07;;;11.35;;
66886;SDS011;53798;51.680;5.976;2022-07-21T01:05:24;16.00;;;11.70;;
66886;SDS011;53798;51.680;5.976;2022-07-21T01:07:52;13.90;;;12.40;;
66886;SDS011;53798;51.680;5.976;2022-07-21T01:10:22;16.33;;;13.50;;
66886;SDS011;53798;51.680;5.976;2022-07-21T01:12:51;15.32;;;13.60;;
66886;SDS011;53798;51.680;5.976;2022-07-21T01:15:19;14.30;;;12.80;;
66886;SDS011;53798;51.680;5.976;2022-07-21T01:17:47;14.20;;;12.27;;
66886;SDS011;53798;51.680;5.976;2022-07-21T01:20:16;14.32;;;12.82;;
66886;SDS011;53798;51.680;5.976;2022-07-21T01:22:47;17.55;;;13.43;;
66886;SDS011;53798;51.680;5.976;2022-07-21T01:25:21;16.45;;;13.77;;
66886;SDS011;53798;51.680;5.976;2022-07-21T01:27:49;16.48;;;13.38;;
66886;SDS011;53798;51.680;5.976;2022-07-21T01:30:16;15.52;;;13.55;;
66886;SDS011;53798;51.680;5.976;2022-07-21T01:32:44;18.05;;;14.63;;
66886;SDS011;53798;51.680;5.976;2022-07-21T01:35:14;15.68;;;14.00;;
66886;SDS011;53798;51.680;5.976;2022-07-21T01:37:46;16.95;;;14.88;;
66886;SDS011;53798;51.680;5.976;2022-07-21T01:40:14;15.13;;;13.52;;
66886;SDS011;53798;51.680;5.976;2022-07-21T01:43:03;15.60;;;13.48;;
66886;SDS011;53798;51.680;5.976;2022-07-21T01:45:38;16.15;;;14.23;;
66886;SDS011;53798;51.680;5.976;2022-07-21T01:48:09;15.65;;;13.57;;
66886;SDS011;53798;51.680;5.976;2022-07-21T01:50:36;17.65;;;14.25;;
66886;SDS011;53798;51.680;5.976;2022-07-21T01:53:04;16.08;;;14.13;;
66886;SDS011;53798;51.680;5.976;2022-07-21T01:55:31;16.38;;;14.60;;
66886;SDS011;53798;51.680;5.976;2022-07-21T01:58:01;16.08;;;14.30;;
66886;SDS011;53798;51.680;5.976;2022-07-21T02:00:28;16.80;;;14.88;;
66886;SDS011;53798;51.680;5.976;2022-07-21T02:02:56;15.73;;;14.10;;
66886;SDS011;53798;51.680;5.976;2022-07-21T02:05:23;18.58;;;14.48;;
66886;SDS011;53798;51.680;5.976;2022-07-21T02:07:50;18.30;;;14.27;;
66886;SDS011;53798;51.680;5.976;2022-07-21T02:10:17;16.80;;;14.50;;
66886;SDS011;53798;51.680;5.976;2022-07-21T02:12:44;17.00;;;14.32;;
66886;SDS011;53798;51.680;5.976;2022-07-21T02:15:12;16.65;;;14.77;;
66886;SDS011;53798;51.680;5.976;2022-07-21T02:17:39;17.77;;;13.95;;
66886;SDS011;53798;51.680;5.976;2022-07-21T02:20:07;17.02;;;14.48;;
66886;SDS011;53798;51.680;5.976;2022-07-21T02:22:35;17.13;;;14.40;;
66886;SDS011;53798;51.680;5.976;2022-07-21T02:25:03;17.63;;;13.05;;
66886;SDS011;53798;51.680;5.976;2022-07-21T02:27:30;18.33;;;13.27;;
66886;SDS011;53798;51.680;5.976;2022-07-21T02:29:58;16.92;;;14.68;;
66886;SDS011;53798;51.680;5.976;2022-07-21T02:32:25;17.55;;;14.30;;
66886;SDS011;53798;51.680;5.976;2022-07-21T02:34:52;14.15;;;12.68;;
66886;SDS011;53798;51.680;5.976;2022-07-21T02:37:19;18.45;;;14.55;;
66886;SDS011;53798;51.680;5.976;2022-07-21T02:39:47;17.50;;;14.68;;
66886;SDS011;53798;51.680;5.976;2022-07-21T02:42:14;16.42;;;13.60;;
66886;SDS011;53798;51.680;5.976;2022-07-21T02:44:41;17.77;;;14.52;;
66886;SDS011;53798;51.680;5.976;2022-07-21T02:47:08;17.42;;;14.27;;
66886;SDS011;53798;51.680;5.976;2022-07-21T02:49:35;16.77;;;13.50;;
66886;SDS011;53798;51.680;5.976;2022-07-21T02:52:02;16.58;;;13.93;;
66886;SDS011;53798;51.680;5.976;2022-07-21T02:54:31;15.70;;;14.10;;
66886;SDS011;53798;51.680;5.976;2022-07-21T02:56:58;16.30;;;14.55;;
66886;SDS011;53798;51.680;5.976;2022-07-21T02:59:25;17.65;;;13.88;;
66886;SDS011;53798;51.680;5.976;2022-07-21T03:01:53;16.67;;;14.57;;
66886;SDS011;53798;51.680;5.976;2022-07-21T03:04:20;16.20;;;13.50;;
66886;SDS011;53798;51.680;5.976;2022-07-21T03:06:47;17.25;;;14.18;;
66886;SDS011;53798;51.680;5.976;2022-07-21T03:09:15;19.92;;;14.43;;
66886;SDS011;53798;51.680;5.976;2022-07-21T03:11:42;17.60;;;14.48;;
66886;SDS011;53798;51.680;5.976;2022-07-21T03:14:10;19.77;;;14.77;;
66886;SDS011;53798;51.680;5.976;2022-07-21T03:16:37;19.13;;;15.48;;
66886;SDS011;53798;51.680;5.976;2022-07-21T03:19:04;18.58;;;15.35;;
66886;SDS011;53798;51.680;5.976;2022-07-21T03:21:39;15.65;;;13.82;;
66886;SDS011;53798;51.680;5.976;2022-07-21T03:24:06;18.80;;;14.68;;
66886;SDS011;53798;51.680;5.976;2022-07-21T03:26:33;17.65;;;14.68;;
66886;SDS011;53798;51.680;5.976;2022-07-21T03:29:05;17.98;;;15.98;;
66886;SDS011;53798;51.680;5.976;2022-07-21T03:31:32;18.75;;;14.05;;
66886;SDS011;53798;51.680;5.976;2022-07-21T03:33:59;17.13;;;15.05;;
66886;SDS011;53798;51.680;5.976;2022-07-21T03:36:26;18.15;;;14.65;;
66886;SDS011;53798;51.680;5.976;2022-07-21T03:38:54;19.33;;;15.45;;
66886;SDS011;53798;51.680;5.976;2022-07-21T03:41:21;18.67;;;15.02;;
66886;SDS011;53798;51.680;5.976;2022-07-21T03:43:48;19.52;;;15.30;;
66886;SDS011;53798;51.680;5.976;2022-07-21T03:46:15;20.95;;;16.20;;
66886;SDS011;53798;51.680;5.976;2022-07-21T03:48:43;21.55;;;17.63;;
66886;SDS011;53798;51.680;5.976;2022-07-21T03:51:17;19.48;;;16.27;;
66886;SDS011;53798;51.680;5.976;2022-07-21T03:53:44;18.70;;;16.60;;
66886;SDS011;53798;51.680;5.976;2022-07-21T03:56:11;20.02;;;14.23;;
66886;SDS011;53798;51.680;5.976;2022-07-21T03:58:40;21.10;;;17.67;;
66886;SDS011;53798;51.680;5.976;2022-07-21T04:01:07;22.02;;;16.25;;
66886;SDS011;53798;51.680;5.976;2022-07-21T04:03:34;20.75;;;15.55;;
66886;SDS011;53798;51.680;5.976;2022-07-21T04:06:02;20.58;;;16.73;;
66886;SDS011;53798;51.680;5.976;2022-07-21T04:08:29;19.10;;;17.02;;
66886;SDS011;53798;51.680;5.976;2022-07-21T04:10:56;22.13;;;18.30;;
66886;SDS011;53798;51.680;5.976;2022-07-21T04:13:25;22.13;;;17.13;;
66886;SDS011;53798;51.680;5.976;2022-07-21T04:15:52;21.83;;;17.73;;
66886;SDS011;53798;51.680;5.976;2022-07-21T04:18:20;20.15;;;16.85;;
66886;SDS011;53798;51.680;5.976;2022-07-21T04:20:47;22.13;;;17.42;;
66886;SDS011;53798;51.680;5.976;2022-07-21T04:23:14;24.70;;;18.00;;
66886;SDS011;53798;51.680;5.976;2022-07-21T04:25:41;22.17;;;18.38;;
66886;SDS011;53798;51.680;5.976;2022-07-21T04:28:09;21.05;;;17.38;;
66886;SDS011;53798;51.680;5.976;2022-07-21T04:30:38;21.75;;;18.13;;
66886;SDS011;53798;51.680;5.976;2022-07-21T04:33:05;22.90;;;17.85;;
66886;SDS011;53798;51.680;5.976;2022-07-21T04:35:33;24.52;;;17.88;;
66886;SDS011;53798;51.680;5.976;2022-07-21T04:38:00;22.02;;;19.63;;
66886;SDS011;53798;51.680;5.976;2022-07-21T04:40:28;20.42;;;17.17;;
66886;SDS011;53798;51.680;5.976;2022-07-21T04:42:55;24.05;;;18.30;;
66886;SDS011;53798;51.680;5.976;2022-07-21T04:45:22;24.00;;;18.42;;
66886;SDS011;53798;51.680;5.976;2022-07-21T04:47:51;22.35;;;17.90;;
66886;SDS011;53798;51.680;5.976;2022-07-21T04:50:22;23.60;;;19.30;;
66886;SDS011;53798;51.680;5.976;2022-07-21T04:52:53;26.05;;;17.77;;
66886;SDS011;53798;51.680;5.976;2022-07-21T04:55:21;24.77;;;17.63;;
66886;SDS011;53798;51.680;5.976;2022-07-21T04:57:50;23.58;;;18.42;;
66886;SDS011;53798;51.680;5.976;2022-07-21T05:00:20;22.65;;;18.30;;
66886;SDS011;53798;51.680;5.976;2022-07-21T05:02:51;23.33;;;18.45;;
66886;SDS011;53798;51.680;5.976;2022-07-21T05:05:20;26.65;;;18.40;;
66886;SDS011;53798;51.680;5.976;2022-07-21T05:07:47;22.30;;;17.77;;
66886;SDS011;53798;51.680;5.976;2022-07-21T05:10:16;25.27;;;18.27;;
66886;SDS011;53798;51.680;5.976;2022-07-21T05:12:46;22.42;;;17.27;;
66886;SDS011;53798;51.680;5.976;2022-07-21T05:15:13;27.67;;;19.08;;
66886;SDS011;53798;51.680;5.976;2022-07-21T05:17:40;26.65;;;18.55;;
66886;SDS011;53798;51.680;5.976;2022-07-21T05:20:08;25.15;;;18.23;;
66886;SDS011;53798;51.680;5.976;2022-07-21T05:22:37;26.30;;;17.50;;
66886;SDS011;53798;51.680;5.976;2022-07-21T05:25:05;30.48;;;18.83;;
66886;SDS011;53798;51.680;5.976;2022-07-21T05:27:33;23.98;;;16.65;;
66886;SDS011;53798;51.680;5.976;2022-07-21T05:30:02;22.73;;;17.70;;
66886;SDS011;53798;51.680;5.976;2022-07-21T05:32:31;28.15;;;19.75;;
66886;SDS011;53798;51.680;5.976;2022-07-21T05:34:58;19.65;;;16.98;;
66886;SDS011;53798;51.680;5.976;2022-07-21T05:37:26;26.00;;;19.98;;
66886;SDS011;53798;51.680;5.976;2022-07-21T05:39:58;26.67;;;19.73;;
66886;SDS011;53798;51.680;5.976;2022-07-21T05:42:26;24.23;;;18.98;;
66886;SDS011;53798;51.680;5.976;2022-07-21T05:44:55;25.00;;;19.35;;
66886;SDS011;53798;51.680;5.976;2022-07-21T05:47:24;26.95;;;17.95;;
66886;SDS011;53798;51.680;5.976;2022-07-21T05:49:51;27.73;;;17.98;;
66886;SDS011;53798;51.680;5.976;2022-07-21T05:52:18;25.88;;;18.25;;
66886;SDS011;53798;51.680;5.976;2022-07-21T05:54:49;22.08;;;18.92;;
66886;SDS011;53798;51.680;5.976;2022-07-21T05:57:18;19.95;;;17.13;;
66886;SDS011;53798;51.680;5.976;2022-07-21T05:59:45;23.20;;;17.95;;
66886;SDS011;53798;51.680;5.976;2022-07-21T06:02:13;24.48;;;17.50;;
66886;SDS011;53798;51.680;5.976;2022-07-21T06:04:41;25.10;;;17.75;;
66886;SDS011;53798;51.680;5.976;2022-07-21T06:07:08;19.50;;;15.00;;
66886;SDS011;53798;51.680;5.976;2022-07-21T06:09:35;20.27;;;15.10;;
66886;SDS011;53798;51.680;5.976;2022-07-21T06:12:02;19.70;;;14.95;;
66886;SDS011;53798;51.680;5.976;2022-07-21T06:14:30;18.30;;;13.15;;
66886;SDS011;53798;51.680;5.976;2022-07-21T06:16:57;23.95;;;13.48;;
66886;SDS011;53798;51.680;5.976;2022-07-21T06:19:24;20.63;;;13.63;;
66886;SDS011;53798;51.680;5.976;2022-07-21T06:21:58;18.95;;;12.50;;
66886;SDS011;53798;51.680;5.976;2022-07-21T06:24:25;18.75;;;13.05;;
66886;SDS011;53798;51.680;5.976;2022-07-21T06:26:53;29.98;;;13.30;;
66886;SDS011;53798;51.680;5.976;2022-07-21T06:29:31;33.10;;;11.82;;
66886;SDS011;53798;51.680;5.976;2022-07-21T06:31:58;36.13;;;12.38;;
66886;SDS011;53798;51.680;5.976;2022-07-21T06:34:26;20.90;;;11.43;;
66886;SDS011;53798;51.680;5.976;2022-07-21T06:36:53;16.88;;;11.02;;
66886;SDS011;53798;51.680;5.976;2022-07-21T06:39:20;21.92;;;11.85;;
66886;SDS011;53798;51.680;5.976;2022-07-21T06:41:48;17.02;;;10.55;;
66886;SDS011;53798;51.680;5.976;2022-07-21T06:44:16;40.15;;;13.18;;
66886;SDS011;53798;51.680;5.976;2022-07-21T06:46:45;30.80;;;12.73;;
66886;SDS011;53798;51.680;5.976;2022-07-21T06:49:13;23.38;;;12.25;;
66886;SDS011;53798;51.680;5.976;2022-07-21T06:51:40;21.98;;;12.48;;
66886;SDS011;53798;51.680;5.976;2022-07-21T06:54:07;25.13;;;12.30;;
66886;SDS011;53798;51.680;5.976;2022-07-21T06:56:34;24.67;;;14.23;;
66886;SDS011;53798;51.680;5.976;2022-07-21T06:59:01;21.20;;;12.35;;
66886;SDS011;53798;51.680;5.976;2022-07-21T07:01:32;22.77;;;12.32;;
66886;SDS011;53798;51.680;5.976;2022-07-21T07:04:01;20.42;;;12.93;;
66886;SDS011;53798;51.680;5.976;2022-07-21T07:06:29;28.00;;;14.23;;
66886;SDS011;53798;51.680;5.976;2022-07-21T07:08:56;18.83;;;14.27;;
66886;SDS011;53798;51.680;5.976;2022-07-21T07:11:24;24.38;;;14.60;;
66886;SDS011;53798;51.680;5.976;2022-07-21T07:13:51;23.73;;;14.52;;
66886;SDS011;53798;51.680;5.976;2022-07-21T07:16:25;22.40;;;15.00;;
66886;SDS011;53798;51.680;5.976;2022-07-21T07:18:54;18.38;;;13.68;;
66886;SDS011;53798;51.680;5.976;2022-07-21T07:21:22;18.83;;;14.88;;
66886;SDS011;53798;51.680;5.976;2022-07-21T07:23:49;26.27;;;14.63;;
66886;SDS011;53798;51.680;5.976;2022-07-21T07:26:17;22.58;;;14.77;;
66886;SDS011;53798;51.680;5.976;2022-07-21T07:28:44;23.23;;;14.95;;
66886;SDS011;53798;51.680;5.976;2022-07-21T07:31:11;22.38;;;14.93;;
66886;SDS011;53798;51.680;5.976;2022-07-21T07:33:39;21.50;;;15.32;;
66886;SDS011;53798;51.680;5.976;2022-07-21T07:36:10;19.92;;;15.10;;
66886;SDS011;53798;51.680;5.976;2022-07-21T07:38:39;22.00;;;14.75;;
66886;SDS011;53798;51.680;5.976;2022-07-21T07:41:13;32.15;;;15.27;;
66886;SDS011;53798;51.680;5.976;2022-07-21T07:43:42;18.77;;;14.43;;
66886;SDS011;53798;51.680;5.976;2022-07-21T07:46:11;23.98;;;15.27;;
66886;SDS011;53798;51.680;5.976;2022-07-21T07:48:39;22.67;;;15.70;;
66886;SDS011;53798;51.680;5.976;2022-07-21T07:51:09;20.95;;;14.63;;
66886;SDS011;53798;51.680;5.976;2022-07-21T07:53:40;21.48;;;15.38;;
66886;SDS011;53798;51.680;5.976;2022-07-21T07:56:08;21.90;;;15.05;;
66886;SDS011;53798;51.680;5.976;2022-07-21T07:58:35;22.08;;;14.10;;
66886;SDS011;53798;51.680;5.976;2022-07-21T08:01:05;19.58;;;14.32;;
66886;SDS011;53798;51.680;5.976;2022-07-21T08:03:35;24.38;;;14.45;;
66886;SDS011;53798;51.680;5.976;2022-07-21T08:06:05;20.08;;;14.25;;
66886;SDS011;53798;51.680;5.976;2022-07-21T08:08:33;22.95;;;14.20;;
66886;SDS011;53798;51.680;5.976;2022-07-21T08:11:00;22.50;;;13.73;;
66886;SDS011;53798;51.680;5.976;2022-07-21T08:13:27;24.92;;;15.25;;
66886;SDS011;53798;51.680;5.976;2022-07-21T08:15:55;18.05;;;13.80;;
66886;SDS011;53798;51.680;5.976;2022-07-21T08:18:22;23.35;;;14.40;;
66886;SDS011;53798;51.680;5.976;2022-07-21T08:20:52;23.30;;;14.68;;
66886;SDS011;53798;51.680;5.976;2022-07-21T08:23:20;23.58;;;13.85;;
66886;SDS011;53798;51.680;5.976;2022-07-21T08:25:47;23.42;;;14.90;;
66886;SDS011;53798;51.680;5.976;2022-07-21T08:28:23;21.70;;;14.75;;
66886;SDS011;53798;51.680;5.976;2022-07-21T08:30:50;23.63;;;13.98;;
66886;SDS011;53798;51.680;5.976;2022-07-21T08:33:18;20.98;;;14.38;;
66886;SDS011;53798;51.680;5.976;2022-07-21T08:35:47;24.05;;;16.02;;
66886;SDS011;53798;51.680;5.976;2022-07-21T08:38:15;20.98;;;15.52;;
66886;SDS011;53798;51.680;5.976;2022-07-21T08:40:46;20.90;;;15.02;;
66886;SDS011;53798;51.680;5.976;2022-07-21T08:43:15;24.42;;;15.18;;
66886;SDS011;53798;51.680;5.976;2022-07-21T08:45:45;24.23;;;15.00;;
66886;SDS011;53798;51.680;5.976;2022-07-21T08:48:12;23.83;;;13.45;;
66886;SDS011;53798;51.680;5.976;2022-07-21T08:50:44;33.53;;;15.20;;
66886;SDS011;53798;51.680;5.976;2022-07-21T08:53:12;21.13;;;14.80;;
66886;SDS011;53798;51.680;5.976;2022-07-21T08:55:45;17.50;;;12.40;;
66886;SDS011;53798;51.680;5.976;2022-07-21T08:58:13;24.40;;;13.80;;
66886;SDS011;53798;51.680;5.976;2022-07-21T09:00:43;20.83;;;12.95;;
66886;SDS011;53798;51.680;5.976;2022-07-21T09:08:49;21.02;;;11.93;;
66886;SDS011;53798;51.680;5.976;2022-07-21T09:11:24;25.73;;;11.77;;
66886;SDS011;53798;51.680;5.976;2022-07-21T09:14:05;11.93;;;8.20;;
66886;SDS011;53798;51.680;5.976;2022-07-21T09:16:40;13.48;;;7.82;;
66886;SDS011;53798;51.680;5.976;2022-07-21T09:19:18;11.97;;;6.70;;
66886;SDS011;53798;51.680;5.976;2022-07-21T09:21:56;13.60;;;5.95;;
66886;SDS011;53798;51.680;5.976;2022-07-21T09:24:27;11.15;;;6.03;;
66886;SDS011;53798;51.680;5.976;2022-07-21T09:32:21;17.63;;;6.22;;
66886;SDS011;53798;51.680;5.976;2022-07-21T09:35:03;12.77;;;6.32;;
66886;SDS011;53798;51.680;5.976;2022-07-21T09:37:34;10.65;;;6.03;;
66886;SDS011;53798;51.680;5.976;2022-07-21T09:40:08;9.48;;;6.68;;
66886;SDS011;53798;51.680;5.976;2022-07-21T09:42:43;14.20;;;7.35;;
66886;SDS011;53798;51.680;5.976;2022-07-21T09:45:20;12.02;;;7.50;;
66886;SDS011;53798;51.680;5.976;2022-07-21T09:47:47;9.00;;;7.95;;
66886;SDS011;53798;51.680;5.976;2022-07-21T09:50:15;11.82;;;8.52;;
66886;SDS011;53798;51.680;5.976;2022-07-21T09:52:55;14.25;;;9.18;;
66886;SDS011;53798;51.680;5.976;2022-07-21T09:55:26;15.02;;;9.23;;
66886;SDS011;53798;51.680;5.976;2022-07-21T09:57:55;9.85;;;8.43;;
66886;SDS011;53798;51.680;5.976;2022-07-21T10:00:22;13.43;;;8.05;;
66886;SDS011;53798;51.680;5.976;2022-07-21T10:02:50;13.25;;;8.30;;
66886;SDS011;53798;51.680;5.976;2022-07-21T10:05:20;12.80;;;8.63;;
66886;SDS011;53798;51.680;5.976;2022-07-21T10:07:59;12.07;;;8.15;;
66886;SDS011;53798;51.680;5.976;2022-07-21T10:10:33;11.15;;;5.63;;
66886;SDS011;53798;51.680;5.976;2022-07-21T10:13:20;10.80;;;6.25;;
66886;SDS011;53798;51.680;5.976;2022-07-21T10:15:48;9.70;;;6.18;;
66886;SDS011;53798;51.680;5.976;2022-07-21T10:18:17;11.55;;;6.40;;
66886;SDS011;53798;51.680;5.976;2022-07-21T10:20:48;10.10;;;6.28;;
66886;SDS011;53798;51.680;5.976;2022-07-21T10:23:34;6.60;;;5.90;;
66886;SDS011;53798;51.680;5.976;2022-07-21T10:26:06;8.73;;;6.00;;
66886;SDS011;53798;51.680;5.976;2022-07-21T10:28:35;11.18;;;6.30;;
66886;SDS011;53798;51.680;5.976;2022-07-21T10:31:14;8.63;;;6.22;;
66886;SDS011;53798;51.680;5.976;2022-07-21T10:36:38;9.10;;;6.03;;
66886;SDS011;53798;51.680;5.976;2022-07-21T10:47:02;6.20;;;4.95;;
66886;SDS011;53798;51.680;5.976;2022-07-21T10:49:52;7.72;;;5.00;;
66886;SDS011;53798;51.680;5.976;2022-07-21T10:57:38;7.00;;;5.20;;
66886;SDS011;53798;51.680;5.976;2022-07-21T11:02:41;6.13;;;5.53;;
66886;SDS011;53798;51.680;5.976;2022-07-21T11:05:09;6.45;;;5.75;;
66886;SDS011;53798;51.680;5.976;2022-07-21T11:10:47;8.27;;;5.57;;
66886;SDS011;53798;51.680;5.976;2022-07-21T11:13:19;7.35;;;5.70;;
66886;SDS011;53798;51.680;5.976;2022-07-21T11:18:28;6.18;;;5.57;;
66886;SDS011;53798;51.680;5.976;2022-07-21T11:21:00;6.30;;;5.13;;
66886;SDS011;53798;51.680;5.976;2022-07-21T11:23:42;6.57;;;5.88;;
66886;SDS011;53798;51.680;5.976;2022-07-21T11:26:24;5.95;;;5.22;;
66886;SDS011;53798;51.680;5.976;2022-07-21T11:29:05;5.63;;;4.85;;
66886;SDS011;53798;51.680;5.976;2022-07-21T11:31:44;4.70;;;4.20;;
66886;SDS011;53798;51.680;5.976;2022-07-21T11:34:21;6.18;;;5.32;;
66886;SDS011;53798;51.680;5.976;2022-07-21T11:37:00;6.93;;;4.88;;
66886;SDS011;53798;51.680;5.976;2022-07-21T11:39:48;5.70;;;4.55;;
66886;SDS011;53798;51.680;5.976;2022-07-21T11:42:16;5.65;;;5.07;;
66886;SDS011;53798;51.680;5.976;2022-07-21T11:44:43;6.70;;;5.28;;
66886;SDS011;53798;51.680;5.976;2022-07-21T11:47:12;6.75;;;5.43;;
66886;SDS011;53798;51.680;5.976;2022-07-21T11:49:42;6.40;;;5.80;;
66886;SDS011;53798;51.680;5.976;2022-07-21T11:52:11;7.18;;;5.60;;
66886;SDS011;53798;51.680;5.976;2022-07-21T11:54:44;7.17;;;6.20;;
66886;SDS011;53798;51.680;5.976;2022-07-21T11:57:25;7.53;;;5.72;;
66886;SDS011;53798;51.680;5.976;2022-07-21T11:59:56;7.60;;;5.80;;
66886;SDS011;53798;51.680;5.976;2022-07-21T12:02:30;8.98;;;6.07;;
66886;SDS011;53798;51.680;5.976;2022-07-21T12:04:59;9.90;;;6.75;;
66886;SDS011;53798;51.680;5.976;2022-07-21T12:10:30;8.68;;;6.80;;
66886;SDS011;53798;51.680;5.976;2022-07-21T12:13:06;10.85;;;6.00;;
66886;SDS011;53798;51.680;5.976;2022-07-21T12:15:36;9.85;;;7.18;;
66886;SDS011;53798;51.680;5.976;2022-07-21T12:18:05;12.57;;;7.53;;
66886;SDS011;53798;51.680;5.976;2022-07-21T12:20:36;8.85;;;7.43;;
66886;SDS011;53798;51.680;5.976;2022-07-21T12:23:23;10.25;;;7.95;;
66886;SDS011;53798;51.680;5.976;2022-07-21T12:25:55;9.93;;;7.15;;
66886;SDS011;53798;51.680;5.976;2022-07-21T12:28:49;10.73;;;7.63;;
66886;SDS011;53798;51.680;5.976;2022-07-21T12:31:21;10.00;;;7.38;;
66886;SDS011;53798;51.680;5.976;2022-07-21T12:33:50;10.70;;;8.13;;
66886;SDS011;53798;51.680;5.976;2022-07-21T12:36:46;10.23;;;7.63;;
66886;SDS011;53798;51.680;5.976;2022-07-21T12:42:02;8.82;;;7.35;;
66886;SDS011;53798;51.680;5.976;2022-07-21T12:44:34;9.18;;;7.45;;
66886;SDS011;53798;51.680;5.976;2022-07-21T12:52:48;9.45;;;7.97;;
66886;SDS011;53798;51.680;5.976;2022-07-21T12:55:15;11.30;;;8.80;;
66886;SDS011;53798;51.680;5.976;2022-07-21T12:57:42;12.93;;;8.77;;
66886;SDS011;53798;51.680;5.976;2022-07-21T13:00:10;13.70;;;9.07;;
66886;SDS011;53798;51.680;5.976;2022-07-21T13:02:48;11.25;;;9.45;;
66886;SDS011;53798;51.680;5.976;2022-07-21T13:05:19;10.82;;;8.18;;
66886;SDS011;53798;51.680;5.976;2022-07-21T13:07:48;11.02;;;8.63;;
66886;SDS011;53798;51.680;5.976;2022-07-21T13:10:16;10.65;;;8.15;;
66886;SDS011;53798;51.680;5.976;2022-07-21T13:12:44;9.13;;;7.75;;
66886;SDS011;53798;51.680;5.976;2022-07-21T13:15:11;7.20;;;6.50;;
66886;SDS011;53798;51.680;5.976;2022-07-21T13:17:39;8.43;;;5.72;;
66886;SDS011;53798;51.680;5.976;2022-07-21T13:20:08;10.10;;;6.40;;
66886;SDS011;53798;51.680;5.976;2022-07-21T13:22:36;9.45;;;6.95;;
66886;SDS011;53798;51.680;5.976;2022-07-21T13:25:04;7.50;;;5.90;;
66886;SDS011;53798;51.680;5.976;2022-07-21T13:27:34;9.20;;;5.88;;
66886;SDS011;53798;51.680;5.976;2022-07-21T13:30:02;6.90;;;5.63;;
66886;SDS011;53798;51.680;5.976;2022-07-21T13:32:34;6.88;;;5.70;;
66886;SDS011;53798;51.680;5.976;2022-07-21T13:35:05;6.15;;;5.55;;
66886;SDS011;53798;51.680;5.976;2022-07-21T13:37:53;7.15;;;6.25;;
66886;SDS011;53798;51.680;5.976;2022-07-21T13:40:22;6.47;;;5.78;;
66886;SDS011;53798;51.680;5.976;2022-07-21T13:43:12;6.68;;;6.07;;
66886;SDS011;53798;51.680;5.976;2022-07-21T13:45:59;5.72;;;5.13;;
66886;SDS011;53798;51.680;5.976;2022-07-21T13:48:26;6.72;;;6.10;;
66886;SDS011;53798;51.680;5.976;2022-07-21T13:50:53;8.48;;;6.35;;
66886;SDS011;53798;51.680;5.976;2022-07-21T13:53:21;7.50;;;6.40;;
66886;SDS011;53798;51.680;5.976;2022-07-21T13:55:48;8.13;;;5.80;;
66886;SDS011;53798;51.680;5.976;2022-07-21T13:58:17;7.53;;;5.55;;
66886;SDS011;53798;51.680;5.976;2022-07-21T14:00:45;8.40;;;7.40;;
66886;SDS011;53798;51.680;5.976;2022-07-21T14:03:13;7.45;;;6.63;;
66886;SDS011;53798;51.680;5.976;2022-07-21T14:05:44;8.80;;;7.90;;
66886;SDS011;53798;51.680;5.976;2022-07-21T14:08:11;10.23;;;8.63;;
66886;SDS011;53798;51.680;5.976;2022-07-21T14:10:39;11.38;;;8.88;;
66886;SDS011;53798;51.680;5.976;2022-07-21T14:13:07;11.38;;;9.70;;
66886;SDS011;53798;51.680;5.976;2022-07-21T14:15:34;11.30;;;10.07;;
66886;SDS011;53798;51.680;5.976;2022-07-21T14:18:02;9.57;;;8.57;;
66886;SDS011;53798;51.680;5.976;2022-07-21T14:20:29;10.88;;;9.52;;
66886;SDS011;53798;51.680;5.976;2022-07-21T14:22:56;9.07;;;8.10;;
66886;SDS011;53798;51.680;5.976;2022-07-21T14:25:23;12.98;;;8.38;;
66886;SDS011;53798;51.680;5.976;2022-07-21T14:27:53;11.52;;;9.10;;
66886;SDS011;53798;51.680;5.976;2022-07-21T14:30:24;9.85;;;8.63;;
66886;SDS011;53798;51.680;5.976;2022-07-21T14:32:55;8.70;;;6.38;;
66886;SDS011;53798;51.680;5.976;2022-07-21T14:35:24;8.10;;;6.72;;
66886;SDS011;53798;51.680;5.976;2022-07-21T14:37:55;7.75;;;6.70;;
66886;SDS011;53798;51.680;5.976;2022-07-21T14:40:23;7.35;;;6.50;;
66886;SDS011;53798;51.680;5.976;2022-07-21T14:42:51;11.30;;;6.93;;
66886;SDS011;53798;51.680;5.976;2022-07-21T14:45:19;7.00;;;6.30;;
66886;SDS011;53798;51.680;5.976;2022-07-21T14:47:50;9.90;;;7.10;;
66886;SDS011;53798;51.680;5.976;2022-07-21T14:50:19;7.70;;;6.90;;
66886;SDS011;53798;51.680;5.976;2022-07-21T14:52:57;7.50;;;6.80;;
66886;SDS011;53798;51.680;5.976;2022-07-21T14:55:25;8.27;;;7.00;;
66886;SDS011;53798;51.680;5.976;2022-07-21T14:57:55;9.90;;;7.75;;
66886;SDS011;53798;51.680;5.976;2022-07-21T15:00:25;8.07;;;6.50;;
66886;SDS011;53798;51.680;5.976;2022-07-21T15:02:53;8.40;;;7.50;;
66886;SDS011;53798;51.680;5.976;2022-07-21T15:05:21;9.88;;;8.10;;
66886;SDS011;53798;51.680;5.976;2022-07-21T15:07:49;9.60;;;8.27;;
66886;SDS011;53798;51.680;5.976;2022-07-21T15:10:17;10.77;;;8.75;;
66886;SDS011;53798;51.680;5.976;2022-07-21T15:12:45;12.48;;;9.20;;
66886;SDS011;53798;51.680;5.976;2022-07-21T15:15:12;10.63;;;9.38;;
66886;SDS011;53798;51.680;5.976;2022-07-21T15:17:41;11.95;;;10.65;;
66886;SDS011;53798;51.680;5.976;2022-07-21T15:20:08;11.98;;;10.82;;
66886;SDS011;53798;51.680;5.976;2022-07-21T15:22:39;10.35;;;7.60;;
66886;SDS011;53798;51.680;5.976;2022-07-21T15:25:08;10.25;;;9.25;;
66886;SDS011;53798;51.680;5.976;2022-07-21T15:27:37;9.00;;;8.10;;
66886;SDS011;53798;51.680;5.976;2022-07-21T15:30:15;11.02;;;9.07;;